sensor_id;sensor_type;location;lat;lon;timestamp;P1;durP1;ratioP1;P2;durP2;ratioP2
53267;SDS011;39156;51.176;6.738;2023-01-01T00:01:24;39.67;;;36.50;;
53267;SDS011;39156;51.176;6.738;2023-01-01T00:03:51;40.53;;;37.30;;
53267;SDS011;39156;51.176;6.738;2023-01-01T00:06:19;42.28;;;39.08;;
53267;SDS011;39156;51.176;6.738;2023-01-01T00:08:45;43.35;;;39.95;;
53267;SDS011;39156;51.176;6.738;2023-01-01T00:11:31;42.58;;;39.28;;
53267;SDS011;39156;51.176;6.738;2023-01-01T00:13:57;46.33;;;42.83;;
53267;SDS011;39156;51.176;6.738;2023-01-01T00:16:23;45.17;;;41.30;;
53267;SDS011;39156;51.176;6.738;2023-01-01T00:18:48;44.30;;;40.87;;
53267;SDS011;39156;51.176;6.738;2023-01-01T00:21:14;43.67;;;40.27;;
53267;SDS011;39156;51.176;6.738;2023-01-01T00:23:41;43.65;;;40.08;;
53267;SDS011;39156;51.176;6.738;2023-01-01T00:26:11;43.67;;;40.13;;
53267;SDS011;39156;51.176;6.738;2023-01-01T00:28:40;42.95;;;39.78;;
53267;SDS011;39156;51.176;6.738;2023-01-01T00:31:10;43.03;;;39.80;;
53267;SDS011;39156;51.176;6.738;2023-01-01T00:33:38;39.85;;;37.08;;
53267;SDS011;39156;51.176;6.738;2023-01-01T00:36:07;39.43;;;36.53;;
53267;SDS011;39156;51.176;6.738;2023-01-01T00:38:35;39.78;;;36.50;;
53267;SDS011;39156;51.176;6.738;2023-01-01T00:41:01;40.03;;;37.23;;
53267;SDS011;39156;51.176;6.738;2023-01-01T00:43:27;37.63;;;34.90;;
53267;SDS011;39156;51.176;6.738;2023-01-01T00:45:53;38.23;;;35.53;;
53267;SDS011;39156;51.176;6.738;2023-01-01T00:48:19;38.53;;;36.00;;
53267;SDS011;39156;51.176;6.738;2023-01-01T00:50:46;37.38;;;34.97;;
53267;SDS011;39156;51.176;6.738;2023-01-01T00:55:38;36.17;;;33.78;;
53267;SDS011;39156;51.176;6.738;2023-01-01T00:58:05;37.25;;;34.17;;
53267;SDS011;39156;51.176;6.738;2023-01-01T01:00:31;36.97;;;34.50;;
53267;SDS011;39156;51.176;6.738;2023-01-01T01:02:57;37.63;;;34.80;;
53267;SDS011;39156;51.176;6.738;2023-01-01T01:05:22;34.10;;;31.87;;
53267;SDS011;39156;51.176;6.738;2023-01-01T01:07:48;34.93;;;32.93;;
53267;SDS011;39156;51.176;6.738;2023-01-01T01:10:14;34.40;;;32.30;;
53267;SDS011;39156;51.176;6.738;2023-01-01T01:12:40;35.50;;;33.25;;
53267;SDS011;39156;51.176;6.738;2023-01-01T01:15:06;34.30;;;32.20;;
53267;SDS011;39156;51.176;6.738;2023-01-01T01:17:33;35.75;;;33.58;;
53267;SDS011;39156;51.176;6.738;2023-01-01T01:20:00;36.38;;;34.10;;
53267;SDS011;39156;51.176;6.738;2023-01-01T01:22:26;33.00;;;31.10;;
53267;SDS011;39156;51.176;6.738;2023-01-01T01:24:52;35.30;;;33.20;;
53267;SDS011;39156;51.176;6.738;2023-01-01T01:27:17;35.13;;;32.97;;
53267;SDS011;39156;51.176;6.738;2023-01-01T01:29:43;36.70;;;34.50;;
53267;SDS011;39156;51.176;6.738;2023-01-01T01:32:10;34.70;;;32.60;;
53267;SDS011;39156;51.176;6.738;2023-01-01T01:34:36;35.30;;;32.72;;
53267;SDS011;39156;51.176;6.738;2023-01-01T01:37:02;34.83;;;32.53;;
53267;SDS011;39156;51.176;6.738;2023-01-01T01:39:28;34.10;;;32.13;;
53267;SDS011;39156;51.176;6.738;2023-01-01T01:41:54;33.47;;;31.60;;
53267;SDS011;39156;51.176;6.738;2023-01-01T01:47:25;34.53;;;32.55;;
53267;SDS011;39156;51.176;6.738;2023-01-01T01:53:37;34.60;;;32.35;;
53267;SDS011;39156;51.176;6.738;2023-01-01T01:55:47;35.30;;;33.25;;
53267;SDS011;39156;51.176;6.738;2023-01-01T01:58:18;35.10;;;33.00;;
53267;SDS011;39156;51.176;6.738;2023-01-01T02:00:44;32.55;;;30.58;;
53267;SDS011;39156;51.176;6.738;2023-01-01T02:03:11;35.10;;;32.85;;
53267;SDS011;39156;51.176;6.738;2023-01-01T02:05:44;36.33;;;34.22;;
53267;SDS011;39156;51.176;6.738;2023-01-01T02:08:11;34.08;;;31.95;;
53267;SDS011;39156;51.176;6.738;2023-01-01T02:10:38;34.25;;;32.35;;
53267;SDS011;39156;51.176;6.738;2023-01-01T02:13:04;34.60;;;32.53;;
53267;SDS011;39156;51.176;6.738;2023-01-01T02:15:33;34.30;;;32.20;;
53267;SDS011;39156;51.176;6.738;2023-01-01T02:18:25;34.25;;;32.35;;
53267;SDS011;39156;51.176;6.738;2023-01-01T02:21:06;36.92;;;34.28;;
53267;SDS011;39156;51.176;6.738;2023-01-01T02:30:08;34.47;;;32.28;;
53267;SDS011;39156;51.176;6.738;2023-01-01T02:32:43;35.55;;;33.30;;
53267;SDS011;39156;51.176;6.738;2023-01-01T02:35:20;34.53;;;32.42;;
53267;SDS011;39156;51.176;6.738;2023-01-01T02:37:59;36.17;;;33.95;;
53267;SDS011;39156;51.176;6.738;2023-01-01T02:40:39;33.47;;;31.42;;
53267;SDS011;39156;51.176;6.738;2023-01-01T02:43:09;33.50;;;31.63;;
53267;SDS011;39156;51.176;6.738;2023-01-01T02:45:35;35.87;;;33.60;;
53267;SDS011;39156;51.176;6.738;2023-01-01T02:48:34;32.28;;;30.58;;
53267;SDS011;39156;51.176;6.738;2023-01-01T02:51:12;34.67;;;32.67;;
53267;SDS011;39156;51.176;6.738;2023-01-01T03:05:39;35.47;;;33.13;;
53267;SDS011;39156;51.176;6.738;2023-01-01T03:08:43;34.70;;;32.30;;
53267;SDS011;39156;51.176;6.738;2023-01-01T03:11:30;33.03;;;31.20;;
53267;SDS011;39156;51.176;6.738;2023-01-01T03:17:32;33.70;;;31.73;;
53267;SDS011;39156;51.176;6.738;2023-01-01T03:20:05;34.53;;;32.42;;
53267;SDS011;39156;51.176;6.738;2023-01-01T03:22:38;33.97;;;32.13;;
53267;SDS011;39156;51.176;6.738;2023-01-01T03:25:10;34.15;;;32.13;;
53267;SDS011;39156;51.176;6.738;2023-01-01T03:27:43;33.70;;;31.75;;
53267;SDS011;39156;51.176;6.738;2023-01-01T03:30:23;34.08;;;32.00;;
53267;SDS011;39156;51.176;6.738;2023-01-01T03:32:54;36.72;;;34.38;;
53267;SDS011;39156;51.176;6.738;2023-01-01T03:35:36;35.22;;;33.33;;
53267;SDS011;39156;51.176;6.738;2023-01-01T03:38:38;33.30;;;31.45;;
53267;SDS011;39156;51.176;6.738;2023-01-01T03:41:31;33.88;;;31.80;;
53267;SDS011;39156;51.176;6.738;2023-01-01T03:46:48;34.45;;;32.45;;
53267;SDS011;39156;51.176;6.738;2023-01-01T03:49:14;33.70;;;31.75;;
53267;SDS011;39156;51.176;6.738;2023-01-01T03:52:16;34.43;;;32.50;;
53267;SDS011;39156;51.176;6.738;2023-01-01T03:55:08;34.92;;;32.50;;
53267;SDS011;39156;51.176;6.738;2023-01-01T03:58:02;34.67;;;32.85;;
53267;SDS011;39156;51.176;6.738;2023-01-01T04:01:08;32.77;;;30.97;;
53267;SDS011;39156;51.176;6.738;2023-01-01T04:03:40;34.90;;;32.50;;
53267;SDS011;39156;51.176;6.738;2023-01-01T04:06:07;35.97;;;33.92;;
53267;SDS011;39156;51.176;6.738;2023-01-01T04:08:35;32.78;;;30.85;;
53267;SDS011;39156;51.176;6.738;2023-01-01T04:11:02;35.63;;;33.73;;
53267;SDS011;39156;51.176;6.738;2023-01-01T04:14:02;33.88;;;31.75;;
53267;SDS011;39156;51.176;6.738;2023-01-01T04:16:28;37.43;;;35.20;;
53267;SDS011;39156;51.176;6.738;2023-01-01T04:18:54;33.75;;;31.85;;
53267;SDS011;39156;51.176;6.738;2023-01-01T04:21:19;33.25;;;31.17;;
53267;SDS011;39156;51.176;6.738;2023-01-01T04:23:45;34.20;;;32.25;;
53267;SDS011;39156;51.176;6.738;2023-01-01T04:26:12;34.85;;;32.75;;
53267;SDS011;39156;51.176;6.738;2023-01-01T04:28:39;34.45;;;32.55;;
53267;SDS011;39156;51.176;6.738;2023-01-01T04:31:06;35.50;;;33.50;;
53267;SDS011;39156;51.176;6.738;2023-01-01T04:33:32;33.55;;;31.42;;
53267;SDS011;39156;51.176;6.738;2023-01-01T04:36:02;36.42;;;34.15;;
53267;SDS011;39156;51.176;6.738;2023-01-01T04:38:31;33.38;;;31.48;;
53267;SDS011;39156;51.176;6.738;2023-01-01T04:40:58;34.65;;;32.75;;
53267;SDS011;39156;51.176;6.738;2023-01-01T04:43:25;34.05;;;32.05;;
53267;SDS011;39156;51.176;6.738;2023-01-01T04:45:54;35.30;;;33.23;;
53267;SDS011;39156;51.176;6.738;2023-01-01T04:48:28;34.88;;;32.97;;
53267;SDS011;39156;51.176;6.738;2023-01-01T04:50:56;34.58;;;32.67;;
53267;SDS011;39156;51.176;6.738;2023-01-01T04:53:28;34.60;;;32.60;;
53267;SDS011;39156;51.176;6.738;2023-01-01T04:56:02;34.25;;;32.33;;
53267;SDS011;39156;51.176;6.738;2023-01-01T04:58:41;35.88;;;33.60;;
53267;SDS011;39156;51.176;6.738;2023-01-01T05:01:08;35.20;;;33.10;;
53267;SDS011;39156;51.176;6.738;2023-01-01T05:03:50;33.20;;;31.35;;
53267;SDS011;39156;51.176;6.738;2023-01-01T05:06:17;33.58;;;31.67;;
53267;SDS011;39156;51.176;6.738;2023-01-01T05:08:43;34.93;;;32.93;;
53267;SDS011;39156;51.176;6.738;2023-01-01T05:11:15;34.35;;;32.25;;
53267;SDS011;39156;51.176;6.738;2023-01-01T05:13:45;34.05;;;32.13;;
53267;SDS011;39156;51.176;6.738;2023-01-01T05:16:14;33.90;;;31.77;;
53267;SDS011;39156;51.176;6.738;2023-01-01T05:18:43;32.97;;;30.98;;
53267;SDS011;39156;51.176;6.738;2023-01-01T05:21:11;35.22;;;33.13;;
53267;SDS011;39156;51.176;6.738;2023-01-01T05:23:46;35.33;;;33.38;;
53267;SDS011;39156;51.176;6.738;2023-01-01T05:26:13;33.05;;;31.05;;
53267;SDS011;39156;51.176;6.738;2023-01-01T05:28:45;35.80;;;33.53;;
53267;SDS011;39156;51.176;6.738;2023-01-01T05:33:39;35.53;;;33.53;;
53267;SDS011;39156;51.176;6.738;2023-01-01T05:36:06;34.70;;;32.67;;
53267;SDS011;39156;51.176;6.738;2023-01-01T05:38:34;35.97;;;33.58;;
53267;SDS011;39156;51.176;6.738;2023-01-01T05:41:07;33.85;;;31.73;;
53267;SDS011;39156;51.176;6.738;2023-01-01T05:43:35;35.17;;;33.17;;
53267;SDS011;39156;51.176;6.738;2023-01-01T05:46:06;35.67;;;33.70;;
53267;SDS011;39156;51.176;6.738;2023-01-01T05:48:35;34.22;;;31.90;;
53267;SDS011;39156;51.176;6.738;2023-01-01T05:51:05;34.37;;;32.43;;
53267;SDS011;39156;51.176;6.738;2023-01-01T05:53:34;34.30;;;32.30;;
53267;SDS011;39156;51.176;6.738;2023-01-01T05:56:00;33.93;;;31.70;;
53267;SDS011;39156;51.176;6.738;2023-01-01T05:58:27;34.45;;;32.55;;
53267;SDS011;39156;51.176;6.738;2023-01-01T06:00:55;35.00;;;33.00;;
53267;SDS011;39156;51.176;6.738;2023-01-01T06:03:21;35.43;;;33.57;;
53267;SDS011;39156;51.176;6.738;2023-01-01T06:05:47;34.10;;;32.00;;
53267;SDS011;39156;51.176;6.738;2023-01-01T06:08:12;35.37;;;32.97;;
53267;SDS011;39156;51.176;6.738;2023-01-01T06:10:39;34.17;;;32.17;;
53267;SDS011;39156;51.176;6.738;2023-01-01T06:13:05;35.60;;;33.50;;
53267;SDS011;39156;51.176;6.738;2023-01-01T06:15:30;34.45;;;32.20;;
53267;SDS011;39156;51.176;6.738;2023-01-01T06:17:57;33.05;;;31.15;;
53267;SDS011;39156;51.176;6.738;2023-01-01T06:20:23;36.13;;;34.15;;
53267;SDS011;39156;51.176;6.738;2023-01-01T06:22:49;34.43;;;32.50;;
53267;SDS011;39156;51.176;6.738;2023-01-01T06:25:14;35.00;;;33.00;;
53267;SDS011;39156;51.176;6.738;2023-01-01T06:27:40;33.65;;;31.63;;
53267;SDS011;39156;51.176;6.738;2023-01-01T06:30:06;34.30;;;32.40;;
53267;SDS011;39156;51.176;6.738;2023-01-01T06:32:33;34.75;;;32.42;;
53267;SDS011;39156;51.176;6.738;2023-01-01T06:34:59;33.90;;;32.00;;
53267;SDS011;39156;51.176;6.738;2023-01-01T06:37:24;35.57;;;33.13;;
53267;SDS011;39156;51.176;6.738;2023-01-01T06:39:52;32.90;;;30.73;;
53267;SDS011;39156;51.176;6.738;2023-01-01T06:42:18;35.47;;;33.20;;
53267;SDS011;39156;51.176;6.738;2023-01-01T06:44:43;34.67;;;32.78;;
53267;SDS011;39156;51.176;6.738;2023-01-01T06:47:09;34.23;;;32.00;;
53267;SDS011;39156;51.176;6.738;2023-01-01T06:49:34;34.93;;;33.03;;
53267;SDS011;39156;51.176;6.738;2023-01-01T06:52:00;34.40;;;32.40;;
53267;SDS011;39156;51.176;6.738;2023-01-01T06:54:26;34.03;;;32.13;;
53267;SDS011;39156;51.176;6.738;2023-01-01T06:56:51;34.83;;;32.63;;
53267;SDS011;39156;51.176;6.738;2023-01-01T06:59:17;33.20;;;31.27;;
53267;SDS011;39156;51.176;6.738;2023-01-01T07:01:43;34.17;;;32.17;;
53267;SDS011;39156;51.176;6.738;2023-01-01T07:04:10;36.28;;;34.33;;
53267;SDS011;39156;51.176;6.738;2023-01-01T07:06:40;32.95;;;31.05;;
53267;SDS011;39156;51.176;6.738;2023-01-01T07:09:06;34.42;;;32.33;;
53267;SDS011;39156;51.176;6.738;2023-01-01T07:11:33;33.53;;;31.42;;
53267;SDS011;39156;51.176;6.738;2023-01-01T07:13:59;33.95;;;32.05;;
53267;SDS011;39156;51.176;6.738;2023-01-01T07:16:26;36.35;;;34.35;;
53267;SDS011;39156;51.176;6.738;2023-01-01T07:18:52;32.58;;;30.67;;
53267;SDS011;39156;51.176;6.738;2023-01-01T07:21:23;34.80;;;32.60;;
53267;SDS011;39156;51.176;6.738;2023-01-01T07:23:57;35.30;;;33.10;;
53267;SDS011;39156;51.176;6.738;2023-01-01T07:26:27;33.75;;;31.52;;
53267;SDS011;39156;51.176;6.738;2023-01-01T07:28:55;34.83;;;32.83;;
53267;SDS011;39156;51.176;6.738;2023-01-01T07:31:21;34.78;;;32.88;;
53267;SDS011;39156;51.176;6.738;2023-01-01T07:33:46;34.15;;;32.20;;
53267;SDS011;39156;51.176;6.738;2023-01-01T07:36:13;34.88;;;32.63;;
53267;SDS011;39156;51.176;6.738;2023-01-01T07:38:38;34.97;;;32.70;;
53267;SDS011;39156;51.176;6.738;2023-01-01T07:41:04;33.27;;;31.30;;
53267;SDS011;39156;51.176;6.738;2023-01-01T07:43:30;33.87;;;31.57;;
53267;SDS011;39156;51.176;6.738;2023-01-01T07:45:56;34.47;;;32.38;;
53267;SDS011;39156;51.176;6.738;2023-01-01T07:48:23;36.58;;;34.45;;
53267;SDS011;39156;51.176;6.738;2023-01-01T07:50:49;34.93;;;32.93;;
53267;SDS011;39156;51.176;6.738;2023-01-01T07:53:15;33.42;;;31.42;;
53267;SDS011;39156;51.176;6.738;2023-01-01T07:55:41;33.20;;;31.20;;
53267;SDS011;39156;51.176;6.738;2023-01-01T07:58:07;35.57;;;33.47;;
53267;SDS011;39156;51.176;6.738;2023-01-01T08:00:35;32.88;;;30.50;;
53267;SDS011;39156;51.176;6.738;2023-01-01T08:03:01;33.97;;;32.00;;
53267;SDS011;39156;51.176;6.738;2023-01-01T08:05:27;34.17;;;31.98;;
53267;SDS011;39156;51.176;6.738;2023-01-01T08:07:53;36.58;;;34.25;;
53267;SDS011;39156;51.176;6.738;2023-01-01T08:10:19;36.37;;;34.07;;
53267;SDS011;39156;51.176;6.738;2023-01-01T08:12:45;34.13;;;32.03;;
53267;SDS011;39156;51.176;6.738;2023-01-01T08:15:11;34.78;;;32.67;;
53267;SDS011;39156;51.176;6.738;2023-01-01T08:17:37;34.60;;;32.70;;
53267;SDS011;39156;51.176;6.738;2023-01-01T08:20:04;35.80;;;33.35;;
53267;SDS011;39156;51.176;6.738;2023-01-01T08:22:31;32.75;;;30.85;;
53267;SDS011;39156;51.176;6.738;2023-01-01T08:24:57;35.42;;;33.30;;
53267;SDS011;39156;51.176;6.738;2023-01-01T08:27:23;35.63;;;33.15;;
53267;SDS011;39156;51.176;6.738;2023-01-01T08:29:49;35.58;;;33.33;;
53267;SDS011;39156;51.176;6.738;2023-01-01T08:32:14;33.05;;;31.00;;
53267;SDS011;39156;51.176;6.738;2023-01-01T08:34:40;34.20;;;32.15;;
53267;SDS011;39156;51.176;6.738;2023-01-01T08:37:06;37.53;;;35.22;;
53267;SDS011;39156;51.176;6.738;2023-01-01T08:39:37;36.00;;;33.85;;
53267;SDS011;39156;51.176;6.738;2023-01-01T08:42:03;35.95;;;33.50;;
53267;SDS011;39156;51.176;6.738;2023-01-01T08:44:28;37.65;;;35.40;;
53267;SDS011;39156;51.176;6.738;2023-01-01T08:46:54;35.17;;;32.73;;
53267;SDS011;39156;51.176;6.738;2023-01-01T08:49:20;35.83;;;33.67;;
53267;SDS011;39156;51.176;6.738;2023-01-01T08:51:45;33.60;;;31.67;;
53267;SDS011;39156;51.176;6.738;2023-01-01T08:54:11;35.65;;;33.35;;
53267;SDS011;39156;51.176;6.738;2023-01-01T08:56:37;35.67;;;33.60;;
53267;SDS011;39156;51.176;6.738;2023-01-01T08:59:02;37.50;;;34.97;;
53267;SDS011;39156;51.176;6.738;2023-01-01T09:01:28;34.92;;;32.75;;
53267;SDS011;39156;51.176;6.738;2023-01-01T09:03:54;35.60;;;33.60;;
53267;SDS011;39156;51.176;6.738;2023-01-01T09:06:20;34.55;;;32.63;;
53267;SDS011;39156;51.176;6.738;2023-01-01T09:08:46;34.38;;;32.28;;
53267;SDS011;39156;51.176;6.738;2023-01-01T09:11:20;34.05;;;32.05;;
53267;SDS011;39156;51.176;6.738;2023-01-01T09:13:53;35.70;;;33.72;;
53267;SDS011;39156;51.176;6.738;2023-01-01T09:16:19;34.73;;;32.63;;
53267;SDS011;39156;51.176;6.738;2023-01-01T09:18:46;34.67;;;32.58;;
53267;SDS011;39156;51.176;6.738;2023-01-01T09:21:12;37.38;;;35.20;;
53267;SDS011;39156;51.176;6.738;2023-01-01T09:23:38;36.03;;;33.80;;
53267;SDS011;39156;51.176;6.738;2023-01-01T09:26:04;34.67;;;32.60;;
53267;SDS011;39156;51.176;6.738;2023-01-01T09:28:32;33.22;;;31.15;;
53267;SDS011;39156;51.176;6.738;2023-01-01T09:30:58;36.55;;;34.40;;
53267;SDS011;39156;51.176;6.738;2023-01-01T09:33:33;34.80;;;32.65;;
53267;SDS011;39156;51.176;6.738;2023-01-01T09:38:47;35.28;;;33.08;;
53267;SDS011;39156;51.176;6.738;2023-01-01T09:47:36;34.65;;;32.47;;
53267;SDS011;39156;51.176;6.738;2023-01-01T09:53:30;34.15;;;32.00;;
53267;SDS011;39156;51.176;6.738;2023-01-01T09:56:03;33.72;;;31.48;;
53267;SDS011;39156;51.176;6.738;2023-01-01T09:58:42;33.85;;;31.90;;
53267;SDS011;39156;51.176;6.738;2023-01-01T10:03:52;35.03;;;32.90;;
53267;SDS011;39156;51.176;6.738;2023-01-01T10:06:31;33.55;;;31.65;;
53267;SDS011;39156;51.176;6.738;2023-01-01T10:14:49;32.50;;;30.60;;
53267;SDS011;39156;51.176;6.738;2023-01-01T10:17:25;34.13;;;32.17;;
53267;SDS011;39156;51.176;6.738;2023-01-01T10:20:16;34.22;;;32.33;;
53267;SDS011;39156;51.176;6.738;2023-01-01T10:22:58;35.67;;;33.28;;
53267;SDS011;39156;51.176;6.738;2023-01-01T10:25:36;33.90;;;31.80;;
53267;SDS011;39156;51.176;6.738;2023-01-01T10:31:13;35.08;;;33.03;;
53267;SDS011;39156;51.176;6.738;2023-01-01T10:33:43;33.42;;;31.48;;
53267;SDS011;39156;51.176;6.738;2023-01-01T10:36:11;34.58;;;32.50;;
53267;SDS011;39156;51.176;6.738;2023-01-01T10:38:41;31.70;;;29.77;;
53267;SDS011;39156;51.176;6.738;2023-01-01T10:41:08;35.43;;;33.37;;
53267;SDS011;39156;51.176;6.738;2023-01-01T10:43:40;34.60;;;32.47;;
53267;SDS011;39156;51.176;6.738;2023-01-01T10:46:33;34.22;;;32.30;;
53267;SDS011;39156;51.176;6.738;2023-01-01T10:49:02;34.00;;;31.75;;
53267;SDS011;39156;51.176;6.738;2023-01-01T10:51:37;34.70;;;32.67;;
53267;SDS011;39156;51.176;6.738;2023-01-01T10:56:53;33.53;;;31.63;;
53267;SDS011;39156;51.176;6.738;2023-01-01T10:59:33;35.87;;;33.50;;
53267;SDS011;39156;51.176;6.738;2023-01-01T11:02:15;35.55;;;33.55;;
53267;SDS011;39156;51.176;6.738;2023-01-01T11:04:52;33.67;;;31.67;;
53267;SDS011;39156;51.176;6.738;2023-01-01T11:07:42;33.50;;;31.60;;
53267;SDS011;39156;51.176;6.738;2023-01-01T11:13:12;34.30;;;32.15;;
53267;SDS011;39156;51.176;6.738;2023-01-01T11:15:43;35.63;;;33.53;;
53267;SDS011;39156;51.176;6.738;2023-01-01T11:18:13;34.50;;;32.40;;
53267;SDS011;39156;51.176;6.738;2023-01-01T11:20:53;34.45;;;32.45;;
53267;SDS011;39156;51.176;6.738;2023-01-01T11:23:32;36.05;;;33.83;;
53267;SDS011;39156;51.176;6.738;2023-01-01T11:26:02;35.33;;;33.20;;
53267;SDS011;39156;51.176;6.738;2023-01-01T11:28:30;37.80;;;35.55;;
53267;SDS011;39156;51.176;6.738;2023-01-01T11:36:23;34.30;;;32.33;;
53267;SDS011;39156;51.176;6.738;2023-01-01T11:39:04;33.28;;;30.95;;
53267;SDS011;39156;51.176;6.738;2023-01-01T11:41:47;33.80;;;31.70;;
53267;SDS011;39156;51.176;6.738;2023-01-01T11:44:50;34.97;;;33.00;;
53267;SDS011;39156;51.176;6.738;2023-01-01T11:47:29;34.90;;;32.83;;
53267;SDS011;39156;51.176;6.738;2023-01-01T11:52:41;34.85;;;32.40;;
53267;SDS011;39156;51.176;6.738;2023-01-01T11:55:32;36.67;;;34.05;;
53267;SDS011;39156;51.176;6.738;2023-01-01T12:01:12;37.42;;;34.72;;
53267;SDS011;39156;51.176;6.738;2023-01-01T12:03:54;34.53;;;32.60;;
53267;SDS011;39156;51.176;6.738;2023-01-01T12:06:33;33.97;;;31.98;;
53267;SDS011;39156;51.176;6.738;2023-01-01T12:12:24;35.20;;;33.08;;
53267;SDS011;39156;51.176;6.738;2023-01-01T12:15:15;35.72;;;33.72;;
53267;SDS011;39156;51.176;6.738;2023-01-01T12:17:59;33.97;;;31.73;;
53267;SDS011;39156;51.176;6.738;2023-01-01T12:23:25;34.20;;;32.10;;
53267;SDS011;39156;51.176;6.738;2023-01-01T12:25:55;35.00;;;33.00;;
53267;SDS011;39156;51.176;6.738;2023-01-01T12:32:10;36.05;;;33.70;;
53267;SDS011;39156;51.176;6.738;2023-01-01T12:35:08;35.03;;;32.90;;
53267;SDS011;39156;51.176;6.738;2023-01-01T12:38:14;34.65;;;32.63;;
53267;SDS011;39156;51.176;6.738;2023-01-01T12:41:08;34.50;;;32.55;;
53267;SDS011;39156;51.176;6.738;2023-01-01T12:49:35;33.42;;;31.52;;
53267;SDS011;39156;51.176;6.738;2023-01-01T12:52:18;35.08;;;33.03;;
53267;SDS011;39156;51.176;6.738;2023-01-01T12:55:27;33.90;;;31.85;;
53267;SDS011;39156;51.176;6.738;2023-01-01T12:58:35;36.60;;;34.38;;
53267;SDS011;39156;51.176;6.738;2023-01-01T13:01:10;37.13;;;34.90;;
53267;SDS011;39156;51.176;6.738;2023-01-01T13:06:24;35.33;;;33.33;;
53267;SDS011;39156;51.176;6.738;2023-01-01T13:09:00;34.80;;;32.63;;
53267;SDS011;39156;51.176;6.738;2023-01-01T13:11:31;34.20;;;32.20;;
53267;SDS011;39156;51.176;6.738;2023-01-01T13:13:59;32.83;;;30.83;;
53267;SDS011;39156;51.176;6.738;2023-01-01T13:16:31;35.03;;;32.93;;
53267;SDS011;39156;51.176;6.738;2023-01-01T13:19:03;35.45;;;33.28;;
53267;SDS011;39156;51.176;6.738;2023-01-01T13:21:29;34.17;;;32.17;;
53267;SDS011;39156;51.176;6.738;2023-01-01T13:24:01;33.67;;;31.40;;
53267;SDS011;39156;51.176;6.738;2023-01-01T13:26:36;34.05;;;32.05;;
53267;SDS011;39156;51.176;6.738;2023-01-01T13:42:44;34.28;;;32.22;;
53267;SDS011;39156;51.176;6.738;2023-01-01T13:45:36;33.78;;;31.95;;
53267;SDS011;39156;51.176;6.738;2023-01-01T13:48:26;35.30;;;33.30;;
53267;SDS011;39156;51.176;6.738;2023-01-01T13:51:56;35.08;;;32.95;;
53267;SDS011;39156;51.176;6.738;2023-01-01T14:00:40;34.58;;;32.25;;
53267;SDS011;39156;51.176;6.738;2023-01-01T14:03:26;36.60;;;34.63;;
53267;SDS011;39156;51.176;6.738;2023-01-01T14:06:01;36.50;;;34.08;;
53267;SDS011;39156;51.176;6.738;2023-01-01T14:08:33;34.55;;;32.35;;
53267;SDS011;39156;51.176;6.738;2023-01-01T14:11:01;34.92;;;32.63;;
53267;SDS011;39156;51.176;6.738;2023-01-01T14:13:42;35.58;;;33.47;;
53267;SDS011;39156;51.176;6.738;2023-01-01T14:16:08;35.10;;;32.90;;
53267;SDS011;39156;51.176;6.738;2023-01-01T14:18:47;35.92;;;33.90;;
53267;SDS011;39156;51.176;6.738;2023-01-01T14:21:16;34.58;;;32.03;;
53267;SDS011;39156;51.176;6.738;2023-01-01T14:23:47;34.38;;;32.47;;
53267;SDS011;39156;51.176;6.738;2023-01-01T14:28:57;35.80;;;33.47;;
53267;SDS011;39156;51.176;6.738;2023-01-01T14:31:27;34.45;;;32.28;;
53267;SDS011;39156;51.176;6.738;2023-01-01T14:33:55;33.53;;;31.58;;
53267;SDS011;39156;51.176;6.738;2023-01-01T14:36:22;35.90;;;33.58;;
53267;SDS011;39156;51.176;6.738;2023-01-01T14:38:55;35.25;;;33.05;;
53267;SDS011;39156;51.176;6.738;2023-01-01T14:41:31;34.58;;;32.47;;
53267;SDS011;39156;51.176;6.738;2023-01-01T14:44:09;35.25;;;32.72;;
53267;SDS011;39156;51.176;6.738;2023-01-01T14:46:38;36.03;;;33.92;;
53267;SDS011;39156;51.176;6.738;2023-01-01T14:52:00;34.03;;;31.90;;
53267;SDS011;39156;51.176;6.738;2023-01-01T14:54:40;36.70;;;34.67;;
53267;SDS011;39156;51.176;6.738;2023-01-01T14:57:19;35.53;;;33.33;;
53267;SDS011;39156;51.176;6.738;2023-01-01T14:59:55;33.47;;;31.37;;
53267;SDS011;39156;51.176;6.738;2023-01-01T15:02:22;35.70;;;33.80;;
53267;SDS011;39156;51.176;6.738;2023-01-01T15:05:14;35.80;;;33.60;;
53267;SDS011;39156;51.176;6.738;2023-01-01T15:07:57;36.58;;;34.08;;
53267;SDS011;39156;51.176;6.738;2023-01-01T15:10:25;35.25;;;33.00;;
53267;SDS011;39156;51.176;6.738;2023-01-01T15:12:54;36.35;;;34.17;;
53267;SDS011;39156;51.176;6.738;2023-01-01T15:21:09;36.08;;;33.90;;
53267;SDS011;39156;51.176;6.738;2023-01-01T15:23:58;36.60;;;34.47;;
53267;SDS011;39156;51.176;6.738;2023-01-01T15:26:38;36.78;;;34.60;;
53267;SDS011;39156;51.176;6.738;2023-01-01T15:29:09;36.45;;;34.15;;
53267;SDS011;39156;51.176;6.738;2023-01-01T15:31:42;35.83;;;33.53;;
53267;SDS011;39156;51.176;6.738;2023-01-01T15:34:19;36.35;;;34.13;;
53267;SDS011;39156;51.176;6.738;2023-01-01T15:36:54;35.95;;;33.60;;
53267;SDS011;39156;51.176;6.738;2023-01-01T15:39:30;35.05;;;33.00;;
53267;SDS011;39156;51.176;6.738;2023-01-01T15:41:56;36.20;;;34.10;;
53267;SDS011;39156;51.176;6.738;2023-01-01T15:44:26;35.75;;;33.45;;
53267;SDS011;39156;51.176;6.738;2023-01-01T15:47:03;36.20;;;33.90;;
53267;SDS011;39156;51.176;6.738;2023-01-01T15:49:39;35.45;;;33.15;;
53267;SDS011;39156;51.176;6.738;2023-01-01T15:52:12;37.38;;;34.85;;
53267;SDS011;39156;51.176;6.738;2023-01-01T15:54:48;36.85;;;34.65;;
53267;SDS011;39156;51.176;6.738;2023-01-01T15:57:21;36.10;;;34.00;;
53267;SDS011;39156;51.176;6.738;2023-01-01T15:59:47;38.20;;;35.90;;
53267;SDS011;39156;51.176;6.738;2023-01-01T16:02:21;34.95;;;33.00;;
53267;SDS011;39156;51.176;6.738;2023-01-01T16:05:00;36.08;;;34.08;;
53267;SDS011;39156;51.176;6.738;2023-01-01T16:07:26;35.13;;;32.97;;
53267;SDS011;39156;51.176;6.738;2023-01-01T16:09:53;36.45;;;34.13;;
53267;SDS011;39156;51.176;6.738;2023-01-01T16:12:19;37.92;;;35.72;;
53267;SDS011;39156;51.176;6.738;2023-01-01T16:14:46;36.38;;;34.33;;
53267;SDS011;39156;51.176;6.738;2023-01-01T16:17:15;36.08;;;33.97;;
53267;SDS011;39156;51.176;6.738;2023-01-01T16:19:43;35.33;;;33.28;;
53267;SDS011;39156;51.176;6.738;2023-01-01T16:22:12;36.95;;;34.67;;
53267;SDS011;39156;51.176;6.738;2023-01-01T16:24:40;35.55;;;33.30;;
53267;SDS011;39156;51.176;6.738;2023-01-01T16:27:07;36.83;;;34.72;;
53267;SDS011;39156;51.176;6.738;2023-01-01T16:29:33;35.05;;;32.75;;
53267;SDS011;39156;51.176;6.738;2023-01-01T16:34:26;35.95;;;33.90;;
53267;SDS011;39156;51.176;6.738;2023-01-01T16:36:52;35.17;;;33.28;;
53267;SDS011;39156;51.176;6.738;2023-01-01T16:39:17;34.13;;;32.22;;
53267;SDS011;39156;51.176;6.738;2023-01-01T16:41:43;35.95;;;33.95;;
53267;SDS011;39156;51.176;6.738;2023-01-01T16:44:12;34.17;;;32.15;;
53267;SDS011;39156;51.176;6.738;2023-01-01T16:46:41;33.95;;;32.05;;
53267;SDS011;39156;51.176;6.738;2023-01-01T16:49:11;37.50;;;35.20;;
53267;SDS011;39156;51.176;6.738;2023-01-01T16:51:36;38.83;;;36.47;;
53267;SDS011;39156;51.176;6.738;2023-01-01T16:54:02;36.53;;;34.42;;
53267;SDS011;39156;51.176;6.738;2023-01-01T16:56:28;36.90;;;34.80;;